createdAt,value
2018-12-01T00:03:30.259Z,85.64
2018-12-01T00:08:34.869Z,86.65
2018-12-01T00:13:39.311Z,87.13
2018-12-01T00:18:43.942Z,87.09
2018-12-01T00:23:49.257Z,87.52
2018-12-01T00:28:52.990Z,86.46
2018-12-01T00:33:57.563Z,86.46
2018-12-01T00:39:02.111Z,86.39
2018-12-01T00:44:06.694Z,86.36
2018-12-01T00:49:11.220Z,86.14
2018-12-01T00:54:15.814Z,85.40
2018-12-01T00:59:39.377Z,86.49
2018-12-01T01:04:43.917Z,86.49
2018-12-01T01:09:48.479Z,88.20
2018-12-01T01:14:53.050Z,85.61
2018-12-01T01:19:57.656Z,86.00
2018-12-01T01:25:02.248Z,86.11
2018-12-01T01:30:25.854Z,86.80
2018-12-01T01:35:30.459Z,85.73
2018-12-01T01:40:35.016Z,86.34
2018-12-01T01:45:39.578Z,85.80
2018-12-01T01:50:44.159Z,86.39
2018-12-01T01:55:48.739Z,85.24
2018-12-01T02:00:53.267Z,85.81
2018-12-01T02:05:57.877Z,86.34
2018-12-01T02:11:02.413Z,85.43
2018-12-01T02:16:07.271Z,85.87
2018-12-01T02:21:11.846Z,85.36
2018-12-01T02:26:35.133Z,84.99
2018-12-01T02:31:39.714Z,85.90
2018-12-01T02:36:44.273Z,85.50
2018-12-01T02:42:08.121Z,85.56
2018-12-01T02:47:12.703Z,85.27
2018-12-01T02:52:17.333Z,84.95
2018-12-01T02:57:21.875Z,86.31
2018-12-01T03:02:45.416Z,85.21
2018-12-01T03:07:50.038Z,85.88
2018-12-01T03:12:55.065Z,85.49
2018-12-01T03:17:59.652Z,85.65
2018-12-01T03:23:04.202Z,86.55
2018-12-01T03:28:08.775Z,86.13
2018-12-01T03:33:13.348Z,85.68
2018-12-01T03:38:17.924Z,86.28
2018-12-01T03:43:22.469Z,86.47
2018-12-01T03:48:27.053Z,86.44
2018-12-01T03:53:31.531Z,86.67
2018-12-01T03:58:36.106Z,87.38
2018-12-01T04:03:40.623Z,86.65
2018-12-01T04:08:45.182Z,86.22
2018-12-01T04:13:49.835Z,86.23
2018-12-01T04:19:13.078Z,86.31
2018-12-01T04:24:17.664Z,86.51
2018-12-01T04:29:22.267Z,86.35
2018-12-01T04:34:26.823Z,86.33
2018-12-01T04:39:31.362Z,86.35
2018-12-01T04:44:35.967Z,87.32
2018-12-01T04:49:40.534Z,87.36
2018-12-01T04:54:45.082Z,87.36
2018-12-01T04:59:49.716Z,87.35
2018-12-01T05:04:54.253Z,86.45
2018-12-01T05:09:58.893Z,86.68
2018-12-01T05:15:04.403Z,86.52
2018-12-01T05:20:27.025Z,86.63
2018-12-01T05:25:31.561Z,86.44
2018-12-01T05:30:36.125Z,86.40
2018-12-01T05:35:40.748Z,86.22
2018-12-01T05:40:45.290Z,86.47
2018-12-01T05:45:49.892Z,86.11
2018-12-01T05:50:54.412Z,86.65
2018-12-01T05:55:58.982Z,86.23
2018-12-01T06:01:03.551Z,86.51
2018-12-01T06:06:08.172Z,86.22
2018-12-01T06:11:12.733Z,86.40
2018-12-01T06:16:17.270Z,86.57
2018-12-01T06:21:21.852Z,87.48
2018-12-01T06:26:45.487Z,87.93
2018-12-01T06:31:50.044Z,86.50
2018-12-01T06:36:54.774Z,87.44
2018-12-01T06:41:59.367Z,87.90
2018-12-01T06:47:03.983Z,88.64
2018-12-01T06:52:08.502Z,89.16
2018-12-01T06:57:13.199Z,87.79
2018-12-01T07:02:17.747Z,87.93
2018-12-01T07:07:22.327Z,87.87
2018-12-01T07:12:26.869Z,87.25
2018-12-01T07:17:31.435Z,87.87
2018-12-01T07:22:35.968Z,88.12
2018-12-01T07:27:40.548Z,87.17
2018-12-01T07:32:45.737Z,86.84
2018-12-01T07:37:50.298Z,87.20
2018-12-01T07:42:54.857Z,87.65
2018-12-01T07:47:59.397Z,87.10
2018-12-01T07:53:03.984Z,87.13
2018-12-01T07:58:09.497Z,87.50
2018-12-01T08:03:13.961Z,87.99
2018-12-01T08:08:18.530Z,87.32
2018-12-01T08:13:23.119Z,86.68
2018-12-01T08:18:27.561Z,86.82
2018-12-01T08:23:32.112Z,86.82
2018-12-01T08:28:36.909Z,87.12
2018-12-01T08:33:42.357Z,86.48
2018-12-01T08:38:46.946Z,87.29
2018-12-01T08:43:51.495Z,87.82
2018-12-01T08:48:56.035Z,87.18
2018-12-01T08:54:00.556Z,86.82
2018-12-01T08:59:05.128Z,87.95
2018-12-01T09:04:09.735Z,87.21
2018-12-01T09:09:17.374Z,87.48
2018-12-01T09:14:22.360Z,87.63
2018-12-01T09:19:26.906Z,87.61
2018-12-01T09:24:31.443Z,88.07
2018-12-01T09:29:36.010Z,87.98
2018-12-01T09:34:40.921Z,87.95
2018-12-01T09:39:45.534Z,87.56
2018-12-01T09:44:50.152Z,86.97
2018-12-01T09:50:32.642Z,87.09
2018-12-01T09:55:56.415Z,86.93
2018-12-01T10:01:20.058Z,86.89
2018-12-01T10:06:43.629Z,86.30
2018-12-01T10:11:50.453Z,86.74
2018-12-01T10:16:52.676Z,86.61
2018-12-01T10:21:57.399Z,86.32
2018-12-01T10:27:01.957Z,86.50
2018-12-01T10:32:06.579Z,86.02
2018-12-01T10:37:11.072Z,85.99
2018-12-01T10:42:15.584Z,86.67
2018-12-01T10:47:20.209Z,86.50
2018-12-01T10:52:24.669Z,86.52
2018-12-01T10:57:47.918Z,85.42
2018-12-01T11:03:11.138Z,85.00
2018-12-01T11:08:16.555Z,86.73
2018-12-01T11:13:21.132Z,85.48
2018-12-01T11:24:14.363Z,86.31
2018-12-01T11:29:19.288Z,84.33
2018-12-01T11:34:43.373Z,83.78
2018-12-01T11:39:50.138Z,85.45
2018-12-01T11:44:56.946Z,86.32
2018-12-01T11:50:18.737Z,86.48
2018-12-01T11:55:26.423Z,85.97
2018-12-01T12:00:30.935Z,86.26
2018-12-01T12:05:35.601Z,86.83
2018-12-01T12:10:40.136Z,86.12
2018-12-01T12:15:45.026Z,86.31
2018-12-01T12:20:50.116Z,86.77
2018-12-01T12:26:13.701Z,87.75
2018-12-01T12:31:18.485Z,86.70
2018-12-01T12:36:42.239Z,86.70
2018-12-01T12:41:46.909Z,86.37
2018-12-01T12:46:51.502Z,87.50
2018-12-01T12:51:56.052Z,87.04
2018-12-01T12:57:00.615Z,87.26
2018-12-01T13:02:05.282Z,87.07
2018-12-01T13:07:09.845Z,86.88
2018-12-01T13:12:14.452Z,87.74
2018-12-01T13:17:19.104Z,87.96
2018-12-01T13:22:23.691Z,86.47
2018-12-01T13:27:28.296Z,87.20
2018-12-01T13:32:32.839Z,86.57
2018-12-01T13:37:38.019Z,85.93
2018-12-01T13:42:42.849Z,86.20
2018-12-01T13:47:52.326Z,86.75
2018-12-01T13:53:18.255Z,87.63
2018-12-01T13:58:22.840Z,87.10
2018-12-01T14:03:29.547Z,86.84
2018-12-01T14:08:52.815Z,87.99
2018-12-01T14:14:17.127Z,87.40
2018-12-01T14:19:40.728Z,87.22
2018-12-01T14:24:45.330Z,87.22
2018-12-01T14:29:49.932Z,87.63
2018-12-01T14:34:54.668Z,87.13
2018-12-01T14:45:28.789Z,87.34
2018-12-01T14:50:33.339Z,87.74
2018-12-01T14:55:38.314Z,87.96
2018-12-01T15:00:42.814Z,87.71
2018-12-01T15:05:47.349Z,87.64
2018-12-01T15:10:51.928Z,88.11
2018-12-01T15:15:56.550Z,87.74
2018-12-01T15:21:01.081Z,88.12
2018-12-01T15:26:05.629Z,88.68
2018-12-01T15:31:11.314Z,87.96
2018-12-01T15:36:15.855Z,88.72
2018-12-01T15:41:20.512Z,88.38
2018-12-01T15:46:25.336Z,88.79
2018-12-01T15:51:29.941Z,87.57
2018-12-01T15:56:53.658Z,88.37
2018-12-01T16:01:58.376Z,87.71
2018-12-01T16:07:21.601Z,87.52
2018-12-01T16:12:26.140Z,86.67
2018-12-01T16:17:30.774Z,87.18
2018-12-01T16:22:54.377Z,87.29
2018-12-01T16:27:58.942Z,87.39
2018-12-01T16:33:04.894Z,87.06
2018-12-01T16:38:11.098Z,86.78
2018-12-01T16:43:16.352Z,87.09
2018-12-01T16:48:21.105Z,87.88
2018-12-01T16:53:25.639Z,87.89
2018-12-01T16:58:30.158Z,87.19
2018-12-01T17:03:53.842Z,87.05
2018-12-01T17:08:58.631Z,87.05
2018-12-01T17:14:03.196Z,87.75
2018-12-01T17:19:08.120Z,88.07
2018-12-01T17:24:12.799Z,88.62
2018-12-01T17:29:17.368Z,87.54
2018-12-01T17:34:41.673Z,87.29
2018-12-01T17:39:46.220Z,88.05
2018-12-01T17:44:50.798Z,88.07
2018-12-01T17:49:55.384Z,87.06
2018-12-01T17:54:59.959Z,86.90
2018-12-01T18:00:24.002Z,86.84
2018-12-01T18:05:51.117Z,87.66
2018-12-01T18:10:56.391Z,87.29
2018-12-01T18:16:01.185Z,87.77
2018-12-01T18:21:24.543Z,88.11
2018-12-01T18:26:29.077Z,87.91
2018-12-01T18:31:33.691Z,88.48
2018-12-01T18:36:57.281Z,88.40
2018-12-01T18:42:02.144Z,88.88
2018-12-01T18:47:06.877Z,88.19
2018-12-01T18:52:11.424Z,88.19
2018-12-01T18:57:16.004Z,88.32
2018-12-01T19:02:20.619Z,88.40
2018-12-01T19:07:25.103Z,88.59
2018-12-01T19:12:29.685Z,88.39
2018-12-01T19:17:34.274Z,88.74
2018-12-01T19:22:38.824Z,88.98
2018-12-01T19:27:43.401Z,88.86
2018-12-01T19:33:10.670Z,89.58
2018-12-01T19:38:38.845Z,88.67
2018-12-01T19:43:43.430Z,88.35
2018-12-01T19:48:47.970Z,88.48
2018-12-01T19:53:52.574Z,88.17
2018-12-01T19:58:57.126Z,88.16
2018-12-01T20:04:01.700Z,88.57
2018-12-01T20:09:07.639Z,88.50
2018-12-01T20:14:14.851Z,88.50
2018-12-01T20:19:19.471Z,88.02
2018-12-01T20:24:24.056Z,88.19
2018-12-01T20:29:29.288Z,88.51
2018-12-01T20:34:55.689Z,87.54
2018-12-01T20:40:00.276Z,88.53
2018-12-01T20:45:04.890Z,88.22
2018-12-01T20:50:17.513Z,88.01
2018-12-01T20:55:26.760Z,88.15
2018-12-01T21:00:31.342Z,88.31
2018-12-01T21:11:06.486Z,87.89
2018-12-01T21:16:11.085Z,87.96
2018-12-01T21:21:15.630Z,88.49
2018-12-01T21:26:20.138Z,88.24
2018-12-01T21:31:24.681Z,88.62
2018-12-01T21:36:29.838Z,88.39
2018-12-01T21:41:34.373Z,88.76
2018-12-01T21:46:38.896Z,88.57
2018-12-01T21:51:43.520Z,89.13
2018-12-01T21:57:06.729Z,89.34
2018-12-01T22:02:11.322Z,88.62
2018-12-01T22:07:15.868Z,88.63
2018-12-01T22:12:20.466Z,88.97
2018-12-01T22:17:25.206Z,89.03
2018-12-01T22:22:29.725Z,88.61
2018-12-01T22:27:34.317Z,88.80
2018-12-01T22:32:57.870Z,89.41
2018-12-01T22:38:02.491Z,89.23
2018-12-01T22:43:08.338Z,88.71
2018-12-01T22:48:31.908Z,87.85
2018-12-01T22:53:36.693Z,87.78
2018-12-01T22:58:41.256Z,88.16
2018-12-01T23:03:45.822Z,88.27
2018-12-01T23:09:09.462Z,87.97
2018-12-01T23:14:14.064Z,88.24
2018-12-01T23:19:19.179Z,88.16
2018-12-01T23:24:52.716Z,88.11
2018-12-01T23:29:57.589Z,88.85
2018-12-01T23:35:02.100Z,88.05
2018-12-01T23:40:08.958Z,88.51
2018-12-01T23:45:32.556Z,88.01
2018-12-01T23:50:37.759Z,88.74
2018-12-01T23:55:42.501Z,88.59
